Time;durP1;ratioP1;P1;durP2;ratioP2;P2;SDS_P1;SDS_P2;PMS_P1;PMS_P2;Temp;Humidity;BMP_temperature;BMP_pressure;BME280_temperature;BME280_humidity;BME280_pressure;Samples;Min_cycle;Max_cycle;Signal;HPM_P1;HPM_P2
2024/01/23 00:01:19;;;;;;;19.98;4.85;;;;;;;11.26;57.06;101594.19;5009951;28;97316;-70
2024/01/23 00:03:45;;;;;;;14.65;4.32;;;;;;;11.26;57.09;101611.19;5007591;27;97670;-70
2024/01/23 00:06:12;;;;;;;17.70;4.57;;;;;;;11.25;56.51;101620.22;5018577;27;97502;-69
2024/01/23 00:08:39;;;;;;;20.00;4.57;;;;;;;11.23;56.96;101634.72;5010758;27;97504;-70
2024/01/23 00:11:06;;;;;;;19.10;4.40;;;;;;;11.20;56.86;101646.50;5006730;27;97196;-70
2024/01/23 00:13:33;;;;;;;17.90;4.57;;;;;;;11.17;56.78;101625.19;5008305;28;97701;-70
2024/01/23 00:16:00;;;;;;;15.02;4.05;;;;;;;11.14;56.74;101633.41;5005617;28;97423;-71
2024/01/23 00:18:27;;;;;;;16.70;4.65;;;;;;;11.11;56.64;101633.59;5004277;28;97613;-70
2024/01/23 00:20:54;;;;;;;18.73;5.13;;;;;;;11.09;56.86;101633.69;5014690;28;97746;-69
2024/01/23 00:23:20;;;;;;;16.20;4.93;;;;;;;11.09;56.98;101632.81;5007684;28;100831;-70
2024/01/23 00:25:47;;;;;;;32.22;6.65;;;;;;;11.07;56.83;101653.56;5006452;28;97508;-69
2024/01/23 00:28:14;;;;;;;13.95;4.60;;;;;;;11.06;56.86;101662.59;5005201;28;97425;-70
2024/01/23 00:30:41;;;;;;;18.02;5.07;;;;;;;11.05;57.24;101666.22;5006897;28;98409;-70
2024/01/23 00:33:10;;;;;;;21.33;5.45;;;;;;;11.05;56.90;101664.41;5004179;28;98869;-70
2024/01/23 00:35:37;;;;;;;20.42;5.78;;;;;;;11.05;56.90;101674.28;5006079;28;97572;-70
2024/01/23 00:38:04;;;;;;;19.88;5.18;;;;;;;11.05;57.02;101685.91;5003489;28;97491;-69
2024/01/23 00:40:31;;;;;;;20.38;5.30;;;;;;;11.06;57.13;101676.88;5006346;28;97624;-69
2024/01/23 00:42:57;;;;;;;22.85;4.90;;;;;;;11.06;57.08;101678.72;5002796;28;98172;-68
2024/01/23 00:45:24;;;;;;;19.88;5.85;;;;;;;11.08;57.07;101687.56;5003476;28;97885;-68
2024/01/23 00:47:51;;;;;;;17.25;5.30;;;;;;;11.10;57.00;101693.69;4999863;27;97428;-70
2024/01/23 00:50:18;;;;;;;24.98;5.22;;;;;;;11.11;57.05;101692.75;5008890;28;97364;-69
2024/01/23 00:52:44;;;;;;;20.67;5.15;;;;;;;11.13;57.09;101699.75;5011660;28;98094;-69
2024/01/23 00:55:11;;;;;;;21.20;5.03;;;;;;;11.15;56.91;101705.06;5009123;28;98473;-69
2024/01/23 00:57:38;;;;;;;17.95;6.47;;;;;;;11.17;57.18;101723.81;5001370;27;97288;-69
2024/01/23 01:00:06;;;;;;;25.42;6.15;;;;;;;11.17;56.85;101713.91;5000092;28;97060;-69
2024/01/23 01:02:38;;;;;;;14.98;5.45;;;;;;;11.17;56.93;101723.81;5012030;28;97806;-69
2024/01/23 01:05:05;;;;;;;21.13;5.72;;;;;;;11.18;56.81;101725.53;4991650;28;99808;-69
2024/01/23 01:07:33;;;;;;;25.52;5.47;;;;;;;11.17;56.92;101748.88;5007282;28;97182;-70
2024/01/23 01:10:00;;;;;;;26.00;5.75;;;;;;;11.17;56.82;101748.88;5010499;28;97378;-69
2024/01/23 01:12:26;;;;;;;20.17;5.25;;;;;;;11.17;56.94;101753.38;5012071;28;98256;-70
2024/01/23 01:14:53;;;;;;;19.13;5.22;;;;;;;11.15;56.68;101740.03;5014796;28;97485;-70
2024/01/23 01:17:20;;;;;;;16.55;4.45;;;;;;;11.16;56.80;101762.41;5007567;28;98454;-70
2024/01/23 01:19:47;;;;;;;21.70;5.13;;;;;;;11.16;56.74;101754.34;5009251;28;96981;-70
2024/01/23 01:22:14;;;;;;;19.88;5.03;;;;;;;11.16;56.70;101751.66;5006028;28;99998;-69
2024/01/23 01:24:41;;;;;;;17.33;4.95;;;;;;;11.15;56.90;101758.84;5003081;28;97815;-69
2024/01/23 01:27:07;;;;;;;19.70;5.50;;;;;;;11.14;56.83;101767.84;5009259;28;97020;-70
2024/01/23 01:29:34;;;;;;;16.90;5.15;;;;;;;11.11;56.84;101773.38;5007590;28;97855;-69
2024/01/23 01:32:01;;;;;;;25.92;6.40;;;;;;;11.07;56.59;101779.91;5016584;28;97655;-70
2024/01/23 01:34:28;;;;;;;18.35;5.68;;;;;;;11.04;56.69;101788.16;5012236;28;97707;-70
2024/01/23 01:36:55;;;;;;;19.30;5.20;;;;;;;11.00;56.78;101789.28;4997550;28;97250;-70
2024/01/23 01:39:22;;;;;;;20.60;5.80;;;;;;;10.97;56.49;101805.59;5009473;28;98032;-70
2024/01/23 01:41:55;;;;;;;18.60;4.43;;;;;;;10.91;56.54;101801.44;5005861;28;100017;-69
2024/01/23 01:44:22;;;;;;;19.98;4.85;;;;;;;10.90;56.64;101793.44;5007637;28;101208;-70
2024/01/23 01:46:49;;;;;;;19.67;5.47;;;;;;;10.88;56.51;101788.16;5015988;27;96869;-70
2024/01/23 01:49:16;;;;;;;21.25;5.18;;;;;;;10.86;56.25;101797.28;5013430;28;98539;-70
2024/01/23 01:51:44;;;;;;;18.90;4.60;;;;;;;10.83;56.43;101799.19;5010359;28;97995;-70
2024/01/23 01:54:11;;;;;;;16.48;4.50;;;;;;;10.82;56.21;101804.63;4999317;28;98125;-69
2024/01/23 01:56:40;;;;;;;12.93;4.15;;;;;;;10.80;56.27;101811.91;5002650;28;98153;-70
2024/01/23 01:59:07;;;;;;;21.33;5.22;;;;;;;10.76;56.01;101819.28;4996400;28;98086;-70
2024/01/23 02:01:35;;;;;;;22.30;5.75;;;;;;;10.73;56.11;101815.91;5009869;28;98586;-70
2024/01/23 02:04:02;;;;;;;22.05;5.18;;;;;;;10.70;56.23;101826.81;5005721;28;97726;-69
2024/01/23 02:06:30;;;;;;;17.65;5.05;;;;;;;10.67;55.87;101832.38;5007132;28;97056;-70
2024/01/23 02:08:58;;;;;;;22.25;4.75;;;;;;;10.63;56.00;101836.19;5003474;28;97304;-70
2024/01/23 02:11:25;;;;;;;20.13;4.75;;;;;;;10.60;56.01;101829.16;5009019;27;97893;-70
2024/01/23 02:13:51;;;;;;;20.20;5.22;;;;;;;10.58;56.16;101841.81;5009069;28;97580;-70
2024/01/23 02:16:18;;;;;;;18.85;5.43;;;;;;;10.56;55.81;101849.09;5008223;28;97204;-70
2024/01/23 02:18:45;;;;;;;17.70;4.90;;;;;;;10.54;55.92;101860.88;5003500;28;97282;-69
2024/01/23 02:21:13;;;;;;;17.50;4.78;;;;;;;10.52;56.04;101870.81;5005399;28;98056;-70
2024/01/23 02:23:41;;;;;;;20.38;5.80;;;;;;;10.50;55.90;101876.28;5005660;28;98121;-70
2024/01/23 02:26:13;;;;;;;20.45;5.93;;;;;;;10.48;55.88;101878.19;5008869;28;97172;-70
2024/01/23 02:28:40;;;;;;;18.65;5.07;;;;;;;10.46;56.04;101890.81;5014499;27;96722;-70
2024/01/23 02:31:07;;;;;;;18.35;5.03;;;;;;;10.45;56.06;101889.09;5008193;28;97783;-70
2024/01/23 02:33:34;;;;;;;18.65;5.05;;;;;;;10.45;56.18;101895.34;5012327;28;98627;-70
2024/01/23 02:36:00;;;;;;;25.80;5.85;;;;;;;10.45;56.19;101906.06;5004306;28;96884;-70
2024/01/23 02:38:27;;;;;;;27.55;6.10;;;;;;;10.47;56.40;101897.94;4999352;28;97109;-70
2024/01/23 02:40:56;;;;;;;27.38;7.03;;;;;;;10.48;56.37;101900.53;5007950;28;100080;-70
2024/01/23 02:43:22;;;;;;;21.92;5.43;;;;;;;10.50;56.39;101917.44;5002392;28;98388;-70
2024/01/23 02:45:49;;;;;;;19.70;5.68;;;;;;;10.50;56.52;101917.44;5008737;28;97467;-70
2024/01/23 02:48:16;;;;;;;22.90;5.25;;;;;;;10.53;56.37;101919.09;5012279;28;98026;-71
2024/01/23 02:50:42;;;;;;;25.83;5.70;;;;;;;10.53;56.15;101923.59;5009426;28;98274;-70
2024/01/23 02:53:09;;;;;;;22.25;5.93;;;;;;;10.53;56.37;101934.34;5004643;28;97534;-70
2024/01/23 02:55:36;;;;;;;22.48;4.68;;;;;;;10.53;56.34;101932.53;5004270;28;97196;-69
2024/01/23 02:58:03;;;;;;;15.50;4.80;;;;;;;10.54;56.36;101930.69;5010517;28;97492;-70
2024/01/23 03:00:30;;;;;;;21.70;5.38;;;;;;;10.55;56.52;101937.81;5007166;27;97427;-70
2024/01/23 03:02:57;;;;;;;20.33;5.45;;;;;;;10.56;56.22;101942.22;5007324;28;97595;-69
2024/01/23 03:05:24;;;;;;;22.98;5.47;;;;;;;10.57;56.50;101952.91;5007023;28;97277;-70
2024/01/23 03:07:52;;;;;;;19.20;6.15;;;;;;;10.58;56.79;101951.06;5007325;28;97616;-70
2024/01/23 03:10:18;;;;;;;21.25;6.15;;;;;;;10.60;56.58;101962.59;5007680;28;99577;-70
2024/01/23 03:12:46;;;;;;;17.55;4.93;;;;;;;10.60;56.71;101955.41;5013733;28;98137;-70
2024/01/23 03:15:12;;;;;;;14.23;4.55;;;;;;;10.63;56.25;101959.75;4998091;28;97784;-71
2024/01/23 03:17:39;;;;;;;27.63;5.75;;;;;;;10.66;56.55;101964.97;5004009;28;97088;-69
2024/01/23 03:20:07;;;;;;;28.23;6.57;;;;;;;10.66;56.64;101957.78;5006839;28;97644;-70
2024/01/23 03:22:34;;;;;;;23.00;5.72;;;;;;;10.69;56.60;101952.22;5010233;28;97604;-69
2024/01/23 03:25:01;;;;;;;21.20;5.53;;;;;;;10.70;56.37;101964.72;5005029;28;97236;-71
2024/01/23 03:27:27;;;;;;;21.80;5.20;;;;;;;10.72;56.50;101967.31;4996681;28;97180;-70
2024/01/23 03:29:54;;;;;;;21.15;6.35;;;;;;;10.72;56.53;101970.00;5000660;28;97587;-70
2024/01/23 03:32:21;;;;;;;17.85;5.28;;;;;;;10.74;56.48;101974.34;5003835;28;97504;-69
2024/01/23 03:34:49;;;;;;;20.00;5.60;;;;;;;10.73;56.33;101982.50;5003343;28;96929;-70
2024/01/23 03:37:16;;;;;;;23.92;5.60;;;;;;;10.73;56.58;101985.19;5002644;28;97311;-69
2024/01/23 03:39:44;;;;;;;20.75;5.15;;;;;;;10.70;56.24;101991.59;5007105;28;97681;-69
2024/01/23 03:42:11;;;;;;;19.48;5.70;;;;;;;10.69;56.18;102003.28;5003828;28;97503;-69
2024/01/23 03:44:40;;;;;;;18.38;4.78;;;;;;;10.67;56.46;102002.50;5006602;28;97197;-70
2024/01/23 03:47:06;;;;;;;20.48;5.32;;;;;;;10.66;56.08;102011.50;5005875;28;97238;-70
2024/01/23 03:49:33;;;;;;;17.63;5.07;;;;;;;10.65;56.27;102022.31;5005262;28;97980;-70
2024/01/23 03:52:00;;;;;;;21.30;5.45;;;;;;;10.63;56.45;102018.84;5006965;28;100452;-70
2024/01/23 03:54:27;;;;;;;26.67;6.40;;;;;;;10.60;56.21;102021.69;5001661;28;97265;-70
2024/01/23 03:56:54;;;;;;;21.83;5.30;;;;;;;10.59;56.42;102025.34;5011301;28;97424;-70
2024/01/23 03:59:21;;;;;;;21.45;4.93;;;;;;;10.58;56.00;102042.41;5010367;27;97591;-70
2024/01/23 04:01:47;;;;;;;18.02;5.15;;;;;;;10.57;56.31;102044.22;5012043;28;97614;-70
2024/01/23 04:04:14;;;;;;;18.55;4.82;;;;;;;10.55;56.22;102042.56;5005392;28;99129;-70
2024/01/23 04:06:41;;;;;;;14.35;4.97;;;;;;;10.53;56.26;102045.34;5011339;28;97273;-70
2024/01/23 04:09:09;;;;;;;17.23;5.32;;;;;;;10.50;56.22;102046.34;5010864;28;97557;-70
2024/01/23 04:11:36;;;;;;;20.52;5.25;;;;;;;10.49;56.18;102049.13;5008837;28;98384;-70
2024/01/23 04:14:02;;;;;;;23.00;5.40;;;;;;;10.48;56.11;102066.19;4996723;28;97000;-70
2024/01/23 04:16:30;;;;;;;19.98;5.13;;;;;;;10.45;56.22;102055.59;5007212;28;97338;-71
2024/01/23 04:18:56;;;;;;;18.08;5.25;;;;;;;10.44;56.27;102072.66;5009124;28;98132;-70
2024/01/23 04:21:23;;;;;;;17.13;4.75;;;;;;;10.42;56.10;102078.09;4992147;28;100243;-69
2024/01/23 04:23:50;;;;;;;20.17;5.05;;;;;;;10.38;56.24;102064.88;5001584;28;97265;-69
2024/01/23 04:26:18;;;;;;;20.13;4.80;;;;;;;10.34;56.20;102079.41;5003081;28;97735;-70
2024/01/23 04:28:48;;;;;;;16.00;4.15;;;;;;;10.33;56.18;102080.34;5001239;28;97664;-70
2024/01/23 04:31:16;;;;;;;18.88;5.63;;;;;;;10.30;56.25;102084.06;5002694;27;99336;-70
2024/01/23 04:33:46;;;;;;;15.70;5.28;;;;;;;10.29;56.08;102092.19;5007261;28;97467;-69
2024/01/23 04:36:15;;;;;;;20.40;4.82;;;;;;;10.27;56.04;102094.09;5001750;28;97262;-70
2024/01/23 04:38:44;;;;;;;23.02;5.55;;;;;;;10.24;56.03;102102.31;5009440;27;97515;-69
2024/01/23 04:41:11;;;;;;;19.20;5.13;;;;;;;10.21;56.13;102111.38;5006182;28;97481;-69
2024/01/23 04:43:38;;;;;;;14.45;4.53;;;;;;;10.20;56.18;102125.75;5002141;28;97677;-70
2024/01/23 04:46:06;;;;;;;24.55;5.00;;;;;;;10.18;56.23;102117.72;5005511;28;97351;-69
2024/01/23 04:48:37;;;;;;;20.38;5.28;;;;;;;10.17;55.97;102123.19;5010293;27;97613;-69
2024/01/23 04:51:04;;;;;;;20.13;5.45;;;;;;;10.14;56.08;102121.50;5000529;28;97566;-69
2024/01/23 04:53:32;;;;;;;21.10;4.57;;;;;;;10.14;56.09;102120.66;5007034;28;96929;-69
2024/01/23 04:55:59;;;;;;;23.42;4.95;;;;;;;10.14;56.15;102128.69;5005834;28;97075;-70
2024/01/23 04:58:26;;;;;;;18.60;5.20;;;;;;;10.13;56.19;102127.81;5009436;28;98654;-70
2024/01/23 05:00:53;;;;;;;23.45;6.13;;;;;;;10.11;56.23;102140.44;5001970;28;98594;-70
2024/01/23 05:03:19;;;;;;;22.98;4.93;;;;;;;10.13;56.31;102151.13;5004108;28;96856;-70
2024/01/23 05:05:46;;;;;;;19.63;5.07;;;;;;;10.14;56.18;102156.41;5005206;28;97623;-70
2024/01/23 05:08:15;;;;;;;15.02;4.82;;;;;;;10.16;56.02;102165.25;5001703;28;97768;-69
2024/01/23 05:10:44;;;;;;;25.05;5.35;;;;;;;10.18;56.08;102159.81;5005352;28;100173;-70
2024/01/23 05:13:11;;;;;;;20.92;5.05;;;;;;;10.19;56.18;102174.97;5003495;28;97352;-69
2024/01/23 05:15:37;;;;;;;18.52;5.22;;;;;;;10.19;56.05;102178.53;5002908;28;97237;-69
2024/01/23 05:18:07;;;;;;;19.75;6.00;;;;;;;10.21;55.86;102185.69;5007916;28;97645;-70
2024/01/23 05:20:34;;;;;;;19.35;4.95;;;;;;;10.21;56.09;102185.69;5003589;28;97547;-71
2024/01/23 05:23:03;;;;;;;21.42;5.10;;;;;;;10.21;55.81;102196.41;5009831;28;97022;-70
2024/01/23 05:25:30;;;;;;;20.42;5.13;;;;;;;10.20;55.95;102190.19;5007084;28;97059;-70
2024/01/23 05:27:57;;;;;;;23.77;5.35;;;;;;;10.20;55.79;102198.22;5006192;28;98225;-70
2024/01/23 05:30:24;;;;;;;16.63;4.57;;;;;;;10.20;55.66;102203.59;5002269;28;97894;-71
2024/01/23 05:32:51;;;;;;;17.52;5.30;;;;;;;10.22;55.74;102214.25;5001106;28;98305;-71
2024/01/23 05:35:18;;;;;;;23.50;5.75;;;;;;;10.22;55.79;102216.94;5003676;28;98413;-69
2024/01/23 05:37:44;;;;;;;19.33;5.28;;;;;;;10.21;55.94;102225.94;5008826;27;98620;-69
2024/01/23 05:40:12;;;;;;;20.17;5.10;;;;;;;10.20;55.71;102222.41;5005900;28;97595;-70
2024/01/23 05:42:39;;;;;;;14.07;4.28;;;;;;;10.21;55.80;102234.00;5000660;28;97375;-70
2024/01/23 05:45:06;;;;;;;20.15;4.78;;;;;;;10.21;55.68;102234.00;4997603;28;96968;-70
2024/01/23 05:47:35;;;;;;;18.30;4.50;;;;;;;10.19;55.84;102242.97;5002905;28;97622;-70
2024/01/23 05:50:02;;;;;;;20.80;4.53;;;;;;;10.18;55.75;102257.34;5000953;27;98021;-70
2024/01/23 05:52:29;;;;;;;19.42;5.18;;;;;;;10.17;55.75;102252.03;4999145;28;97283;-70
2024/01/23 05:54:56;;;;;;;23.60;5.50;;;;;;;10.15;55.76;102253.94;5016387;28;97104;-71
2024/01/23 05:57:22;;;;;;;15.88;4.65;;;;;;;10.14;55.68;102257.56;5002983;28;98139;-70
2024/01/23 05:59:49;;;;;;;22.33;5.38;;;;;;;10.11;55.50;102266.63;5004292;28;97890;-71
2024/01/23 06:02:16;;;;;;;19.88;5.13;;;;;;;10.09;55.55;102260.44;5009198;28;97240;-70
2024/01/23 06:04:43;;;;;;;19.50;5.00;;;;;;;10.04;55.50;102256.25;5006370;28;97229;-71
2024/01/23 06:07:11;;;;;;;24.98;5.40;;;;;;;10.02;55.44;102264.38;5002403;28;97919;-70
2024/01/23 06:09:37;;;;;;;18.50;4.90;;;;;;;10.00;55.70;102265.38;5005670;28;97531;-70
2024/01/23 06:12:05;;;;;;;18.85;4.88;;;;;;;9.96;55.55;102271.81;5004890;28;98407;-70
2024/01/23 06:14:32;;;;;;;15.15;4.18;;;;;;;9.92;55.48;102280.94;5008939;28;97131;-71
2024/01/23 06:16:59;;;;;;;21.63;6.03;;;;;;;9.89;55.60;102287.34;4992405;28;97543;-70
2024/01/23 06:19:26;;;;;;;25.38;5.32;;;;;;;9.85;55.51;102296.47;5011330;28;97520;-70
2024/01/23 06:21:53;;;;;;;27.95;5.72;;;;;;;9.83;55.65;102292.97;4993360;28;96912;-71
2024/01/23 06:24:19;;;;;;;21.17;5.10;;;;;;;9.79;55.60;102294.94;5003462;28;97020;-70
2024/01/23 06:26:46;;;;;;;19.20;5.60;;;;;;;9.77;55.59;102303.97;5000939;28;97819;-70
2024/01/23 06:29:13;;;;;;;20.60;5.47;;;;;;;9.74;55.83;102302.31;4998980;28;99106;-70
2024/01/23 06:31:41;;;;;;;20.27;5.03;;;;;;;9.73;55.78;102315.78;4996765;28;97817;-70
2024/01/23 06:34:08;;;;;;;22.42;5.82;;;;;;;9.71;55.79;102315.00;4994140;28;97255;-70
2024/01/23 06:36:36;;;;;;;22.73;5.30;;;;;;;9.69;55.72;102311.50;4990813;28;97498;-70
2024/01/23 06:39:03;;;;;;;18.50;5.15;;;;;;;9.67;55.91;102313.38;4986460;28;97616;-70
2024/01/23 06:41:30;;;;;;;21.38;4.88;;;;;;;9.65;55.84;102321.47;4990485;28;97454;-70
2024/01/23 06:43:57;;;;;;;20.17;5.15;;;;;;;9.64;55.77;102338.50;4994620;28;97135;-70
2024/01/23 06:46:23;;;;;;;21.55;6.07;;;;;;;9.62;55.86;102324.28;4993443;28;97855;-70
2024/01/23 06:48:50;;;;;;;19.90;4.95;;;;;;;9.62;56.06;102326.97;5003139;28;97505;-71
2024/01/23 06:51:17;;;;;;;20.40;4.97;;;;;;;9.62;56.13;102335.00;5012873;28;97116;-71
2024/01/23 06:53:44;;;;;;;16.60;4.88;;;;;;;9.61;56.13;102335.06;5013707;28;97655;-71
2024/01/23 06:56:11;;;;;;;19.33;4.75;;;;;;;9.60;56.31;102327.97;4997093;28;97657;-70
2024/01/23 06:58:37;;;;;;;16.92;4.85;;;;;;;9.55;55.92;102331.72;4996390;28;100412;-70
2024/01/23 07:01:04;;;;;;;20.05;4.97;;;;;;;9.54;55.99;102332.66;5002198;28;97096;-71
2024/01/23 07:03:31;;;;;;;22.95;5.45;;;;;;;9.51;56.07;102335.47;5006274;28;97826;-71
2024/01/23 07:05:58;;;;;;;22.50;5.25;;;;;;;9.51;56.31;102343.50;5006417;28;97497;-70
2024/01/23 07:08:24;;;;;;;20.83;6.05;;;;;;;9.49;56.12;102357.94;5008096;28;97823;-70
2024/01/23 07:10:51;;;;;;;21.48;5.50;;;;;;;9.49;56.24;102358.81;4991602;28;96965;-71
2024/01/23 07:13:21;;;;;;;21.15;5.80;;;;;;;9.50;56.19;102354.31;5006203;28;97013;-70
2024/01/23 07:15:47;;;;;;;21.42;5.15;;;;;;;9.47;56.25;102371.41;5012727;28;97862;-70
2024/01/23 07:18:14;;;;;;;17.65;5.30;;;;;;;9.48;56.48;102358.88;5012556;28;97628;-70
2024/01/23 07:20:41;;;;;;;18.95;5.90;;;;;;;9.48;56.52;102353.50;4979574;28;97269;-71
2024/01/23 07:23:08;;;;;;;21.75;5.30;;;;;;;9.48;56.12;102356.19;5006208;27;97481;-70
2024/01/23 07:25:34;;;;;;;24.23;6.03;;;;;;;9.46;56.28;102360.75;5001439;28;97910;-70
2024/01/23 07:28:01;;;;;;;28.33;6.03;;;;;;;9.43;56.31;102369.78;5007482;28;97557;-69
2024/01/23 07:30:28;;;;;;;20.38;5.53;;;;;;;9.40;56.21;102379.78;5008065;28;97296;-69
2024/01/23 07:32:55;;;;;;;25.90;5.35;;;;;;;9.37;56.36;102378.09;5006065;28;97408;-68
2024/01/23 07:35:22;;;;;;;29.60;5.70;;;;;;;9.35;56.38;102392.50;4999009;28;98792;-68
2024/01/23 07:37:49;;;;;;;23.25;5.65;;;;;;;9.34;56.44;102393.44;4986643;28;101387;-69
2024/01/23 07:40:16;;;;;;;19.98;4.97;;;;;;;9.33;56.52;102397.91;4995952;28;97181;-69
2024/01/23 07:42:43;;;;;;;18.63;5.60;;;;;;;9.32;56.45;102406.03;4994818;28;96833;-67
2024/01/23 07:45:11;;;;;;;24.05;6.40;;;;;;;9.30;56.52;102402.53;4991269;28;98254;-68
2024/01/23 07:47:38;;;;;;;18.05;5.70;;;;;;;9.28;56.79;102407.97;5002789;28;97631;-69
2024/01/23 07:50:07;;;;;;;18.65;5.15;;;;;;;9.28;56.58;102404.41;4999638;28;96749;-69
2024/01/23 07:52:35;;;;;;;19.85;5.13;;;;;;;9.26;56.54;102414.31;4996904;28;96782;-69
2024/01/23 07:55:03;;;;;;;27.38;6.20;;;;;;;9.26;56.79;102417.00;5009129;28;99735;-69
2024/01/23 07:57:31;;;;;;;19.38;5.40;;;;;;;9.26;56.61;102423.22;5010203;28;100024;-69
2024/01/23 07:59:58;;;;;;;20.25;5.03;;;;;;;9.25;56.94;102426.84;5001679;28;97726;-69
2024/01/23 08:02:26;;;;;;;25.45;5.18;;;;;;;9.26;56.73;102443.81;4983682;28;96977;-69
2024/01/23 08:04:52;;;;;;;19.77;5.00;;;;;;;9.24;56.78;102442.06;4991397;28;98200;-69
2024/01/23 08:07:19;;;;;;;16.50;5.30;;;;;;;9.24;56.65;102443.88;4996966;27;98028;-69
2024/01/23 08:09:46;;;;;;;18.88;5.47;;;;;;;9.23;56.87;102453.72;5012313;27;96849;-69
2024/01/23 08:12:14;;;;;;;21.15;5.40;;;;;;;9.22;56.94;102457.34;5005238;28;97656;-69
2024/01/23 08:14:41;;;;;;;21.00;5.28;;;;;;;9.22;56.79;102457.34;5007469;28;97587;-70
2024/01/23 08:17:08;;;;;;;19.13;5.28;;;;;;;9.24;57.01;102454.59;5002777;28;98387;-69
2024/01/23 08:19:35;;;;;;;24.55;6.10;;;;;;;9.23;57.10;102447.47;5004176;28;96831;-68
2024/01/23 08:22:02;;;;;;;20.02;4.63;;;;;;;9.21;56.92;102455.59;4997746;28;98020;-71
2024/01/23 08:24:29;;;;;;;20.83;5.78;;;;;;;9.21;57.11;102460.06;5001143;28;97689;-72
2024/01/23 08:26:56;;;;;;;22.33;5.97;;;;;;;9.21;57.16;102468.13;4998484;28;98038;-69
2024/01/23 08:29:23;;;;;;;23.92;6.30;;;;;;;9.21;57.24;102476.16;4999676;28;98449;-70
2024/01/23 08:31:49;;;;;;;24.40;6.35;;;;;;;9.20;57.16;102464.56;4997978;28;96874;-70
2024/01/23 08:34:17;;;;;;;22.88;5.65;;;;;;;9.20;57.14;102482.47;4992338;28;98365;-69
2024/01/23 08:36:44;;;;;;;24.90;5.35;;;;;;;9.22;57.02;102485.94;5004230;28;98075;-69
2024/01/23 08:39:11;;;;;;;20.75;5.38;;;;;;;9.20;57.33;102485.13;4993685;28;97192;-70
2024/01/23 08:41:38;;;;;;;24.40;6.13;;;;;;;9.20;57.25;102491.38;4989932;28;97243;-70
2024/01/23 08:44:05;;;;;;;23.08;5.80;;;;;;;9.21;57.43;102493.13;4994356;28;97703;-69
2024/01/23 08:46:31;;;;;;;20.25;5.22;;;;;;;9.23;57.22;102496.59;4991540;28;97589;-70
2024/01/23 08:48:58;;;;;;;25.23;5.43;;;;;;;9.24;57.23;102503.72;4990931;28;97416;-70
2024/01/23 08:51:26;;;;;;;21.55;5.10;;;;;;;9.26;57.60;102509.03;4993757;28;97045;-70
2024/01/23 08:53:53;;;;;;;25.23;5.70;;;;;;;9.28;57.34;102517.00;5002616;28;98225;-70
2024/01/23 08:56:21;;;;;;;27.83;5.93;;;;;;;9.31;57.69;102519.56;5003130;28;97604;-70
2024/01/23 08:58:47;;;;;;;27.73;6.85;;;;;;;9.33;57.34;102517.69;5004627;28;97484;-70
2024/01/23 09:01:14;;;;;;;24.75;6.00;;;;;;;9.34;57.49;102514.94;5010956;28;96938;-70
2024/01/23 09:03:41;;;;;;;22.88;5.55;;;;;;;9.37;57.69;102520.19;5011214;28;98220;-70
2024/01/23 09:06:09;;;;;;;22.00;5.90;;;;;;;9.39;57.62;102523.69;5007926;28;97606;-69
2024/01/23 09:08:36;;;;;;;21.35;5.68;;;;;;;9.40;57.54;102519.19;5001857;28;97132;-72
2024/01/23 09:11:03;;;;;;;21.05;5.95;;;;;;;9.43;57.54;102519.94;4998271;28;97342;-69
2024/01/23 09:13:33;;;;;;;22.17;5.70;;;;;;;9.45;57.75;102518.09;5001690;28;97744;-69
2024/01/23 09:16:00;;;;;;;21.38;5.90;;;;;;;9.48;57.47;102514.41;5003130;28;100050;-71
2024/01/23 09:18:28;;;;;;;18.58;5.88;;;;;;;9.49;57.49;102514.34;5004232;28;96861;-70
2024/01/23 09:20:56;;;;;;;21.42;5.65;;;;;;;9.53;57.69;102523.13;4995687;28;98412;-70
2024/01/23 09:23:23;;;;;;;30.95;7.40;;;;;;;9.57;57.47;102530.13;4996737;27;97421;-70
2024/01/23 09:25:51;;;;;;;24.85;6.15;;;;;;;9.60;57.53;102530.00;5011357;28;98283;-70
2024/01/23 09:28:18;;;;;;;23.50;7.28;;;;;;;9.63;57.46;102534.38;5015370;28;97544;-69
2024/01/23 09:30:45;;;;;;;28.20;6.47;;;;;;;9.65;57.74;102519.09;5004643;28;97461;-70
2024/01/23 09:33:12;;;;;;;24.15;6.20;;;;;;;9.68;57.47;102516.31;5000940;28;100474;-70
2024/01/23 09:35:39;;;;;;;26.35;6.72;;;;;;;9.69;57.54;102516.25;5001052;28;97679;-69
2024/01/23 09:38:06;;;;;;;20.40;6.47;;;;;;;9.74;57.80;102524.13;4994751;28;96745;-69
2024/01/23 09:40:32;;;;;;;24.23;5.90;;;;;;;9.78;57.59;102528.41;5003433;28;97141;-70
2024/01/23 09:43:00;;;;;;;28.15;6.68;;;;;;;9.82;57.49;102522.00;5001354;28;98454;-69
2024/01/23 09:45:28;;;;;;;21.90;5.90;;;;;;;9.85;57.53;102541.53;4987301;28;98226;-69
2024/01/23 09:47:55;;;;;;;21.40;6.00;;;;;;;9.90;57.49;102541.34;5006284;28;97203;-70
2024/01/23 09:50:26;;;;;;;21.33;5.32;;;;;;;9.93;57.52;102534.97;5011918;27;97225;-69
2024/01/23 09:52:55;;;;;;;25.77;6.55;;;;;;;9.95;57.43;102538.47;4989716;28;98116;-70
2024/01/23 09:55:22;;;;;;;20.90;5.25;;;;;;;9.97;57.70;102539.25;5005596;28;100315;-69
2024/01/23 09:57:49;;;;;;;26.10;6.78;;;;;;;9.98;57.41;102549.94;4997791;28;97278;-69
2024/01/23 10:00:16;;;;;;;24.77;6.00;;;;;;;10.00;57.65;102555.25;5003679;28;98381;-69
2024/01/23 10:02:44;;;;;;;26.25;7.22;;;;;;;10.02;57.56;102554.25;5001598;28;98093;-69
2024/01/23 10:05:17;;;;;;;23.02;5.40;;;;;;;10.04;57.68;102538.06;5008045;28;97476;-69
2024/01/23 10:07:44;;;;;;;22.15;6.05;;;;;;;10.07;57.70;102549.56;5011698;28;97212;-69
2024/01/23 10:10:17;;;;;;;24.05;6.85;;;;;;;10.10;57.54;102545.88;4984750;28;97200;-70
2024/01/23 10:12:48;;;;;;;27.67;5.78;;;;;;;10.13;57.69;102561.84;5002563;28;98100;-68
2024/01/23 10:15:22;;;;;;;26.88;5.95;;;;;;;10.17;57.55;102566.16;5003471;28;98405;-69
2024/01/23 10:17:49;;;;;;;27.92;6.78;;;;;;;10.19;57.71;102561.59;5000933;28;97074;-69
2024/01/23 10:20:17;;;;;;;22.33;6.72;;;;;;;10.21;57.49;102562.44;4996427;28;98010;-69
2024/01/23 10:22:45;;;;;;;18.73;6.50;;;;;;;10.23;57.56;102555.19;5005244;28;100192;-68
2024/01/23 10:25:20;;;;;;;18.98;6.88;;;;;;;10.25;57.61;102550.63;5008833;28;98098;-69
2024/01/23 10:27:51;;;;;;;22.83;5.90;;;;;;;10.26;57.45;102552.38;5008982;28;96737;-69
2024/01/23 10:30:17;;;;;;;21.58;5.78;;;;;;;10.29;57.48;102543.31;5006137;28;97375;-69
2024/01/23 10:32:46;;;;;;;24.13;5.75;;;;;;;10.31;57.54;102542.31;5006605;27;97502;-68
2024/01/23 10:35:13;;;;;;;20.20;6.05;;;;;;;10.34;57.80;102541.28;5012319;28;97751;-68
2024/01/23 10:37:40;;;;;;;25.25;6.90;;;;;;;10.38;57.71;102545.59;4989530;28;97033;-69
2024/01/23 10:40:13;;;;;;;19.98;6.18;;;;;;;10.41;57.48;102558.94;5002384;28;97785;-69
2024/01/23 10:42:40;;;;;;;22.23;6.60;;;;;;;10.46;57.73;102560.47;5003041;28;97634;-72
2024/01/23 10:45:10;;;;;;;23.33;6.28;;;;;;;10.50;57.57;102558.53;5004803;28;97626;-68
2024/01/23 10:47:38;;;;;;;24.80;6.10;;;;;;;10.54;57.67;102549.38;5002276;27;96851;-69
2024/01/23 10:50:07;;;;;;;21.80;5.82;;;;;;;10.57;57.66;102562.69;5010148;28;97040;-69
2024/01/23 10:52:42;;;;;;;26.83;7.53;;;;;;;10.61;57.64;102560.75;4985377;28;97650;-68
2024/01/23 10:55:10;;;;;;;16.17;5.38;;;;;;;10.63;57.45;102551.66;4995383;28;97589;-69
2024/01/23 10:57:37;;;;;;;22.83;6.07;;;;;;;10.67;57.48;102553.28;5003851;28;97295;-69
2024/01/23 11:00:07;;;;;;;21.85;6.43;;;;;;;10.69;57.25;102535.28;5005100;28;97139;-68
2024/01/23 11:02:43;;;;;;;25.08;7.15;;;;;;;10.71;57.19;102541.47;4995583;28;98022;-69
2024/01/23 11:05:12;;;;;;;25.08;6.60;;;;;;;10.76;57.58;102538.56;4995021;28;99149;-69
2024/01/23 11:07:53;;;;;;;21.13;5.95;;;;;;;10.80;57.35;102537.47;4997925;28;97107;-68
2024/01/23 11:10:42;;;;;;;24.60;6.15;;;;;;;10.85;57.24;102526.53;5003271;28;96927;-68
2024/01/23 11:13:24;;;;;;;22.60;6.07;;;;;;;10.89;57.30;102529.00;5005151;28;97408;-69
2024/01/23 11:15:51;;;;;;;24.00;6.68;;;;;;;10.94;57.18;102526.09;4980145;28;98622;-69
2024/01/23 11:18:29;;;;;;;18.77;5.90;;;;;;;10.94;57.12;102515.34;4991541;28;97120;-69
2024/01/23 11:21:10;;;;;;;24.77;5.63;;;;;;;10.96;57.18;102508.09;4992770;28;97296;-69